LIME/BGY METAR and TAF weather

Enter ICAO airport designator
Station Type Date Time Source
LIME METAR 2019/10/23 07:20 UTC NOAA

LIME 230720Z 01004KT CAVOK 15/12 Q1021 NOSIG


Station Type Date Time Source
LIME Decoded METAR 2019/10/23 07:20 UTC NOAA

Bergamo / Orio Al Serio, Italy (LIME) 45-40N 009-42E 237M
Oct 23, 2019 - 03:20 AM EDT / 2019.10.23 0720 UTC
Wind: from the N (010 degrees) at 5 MPH (4 KT):0
Visibility: greater than 7 mile(s):0
Temperature: 59 F (15 C)
Dew Point: 53 F (12 C)
Relative Humidity: 82%
Pressure (altimeter): 30.15 in. Hg (1021 hPa)
ob: LIME 230720Z 01004KT CAVOK 15/12 Q1021 NOSIG
cycle: 7

Station Type Date Time Source
LIME TAF 2019/10/23 06:21 UTC NOAA

TAF LIME 230500Z 2306/2406 VRB05KT 8000 NSC
TEMPO 2306/2308 2500 BCFG
BECMG 2323/2401 4000 RA BKN012 BKN040

Example: see airport list